createdAt,value
2024-01-30T00:02:33.603Z,15.57
2024-01-30T00:07:35.754Z,15.38
2024-01-30T00:12:37.968Z,15.65
2024-01-30T00:17:40.161Z,15.45
2024-01-30T00:22:42.319Z,14.57
2024-01-30T00:27:44.518Z,14.98
2024-01-30T00:32:46.915Z,15.10
2024-01-30T00:37:49.582Z,15.00
2024-01-30T00:42:52.103Z,15.05
2024-01-30T00:47:54.404Z,14.98
2024-01-30T00:52:56.726Z,15.45
2024-01-30T00:57:58.797Z,15.13
2024-01-30T01:03:01.043Z,14.48
2024-01-30T01:08:03.241Z,15.07
2024-01-30T01:13:05.370Z,13.93
2024-01-30T01:18:07.902Z,14.93
2024-01-30T01:23:10.186Z,14.45
2024-01-30T01:28:12.364Z,14.45
2024-01-30T01:33:15.701Z,15.10
2024-01-30T01:38:18.076Z,14.27
2024-01-30T01:43:20.289Z,14.50
2024-01-30T01:48:22.733Z,14.07
2024-01-30T01:53:24.935Z,14.23
2024-01-30T01:58:30.057Z,13.00
2024-01-30T02:03:32.236Z,13.65
2024-01-30T02:08:34.609Z,13.82
2024-01-30T02:13:37.483Z,14.13
2024-01-30T02:18:44.390Z,14.73
2024-01-30T02:23:48.107Z,13.70
2024-01-30T02:28:50.445Z,14.15
2024-01-30T02:33:52.777Z,13.70
2024-01-30T02:38:55.592Z,13.80
2024-01-30T02:43:57.671Z,13.55
2024-01-30T02:48:59.964Z,13.88
2024-01-30T02:54:02.328Z,12.85
2024-01-30T02:59:04.632Z,13.30
2024-01-30T03:04:06.833Z,13.38
2024-01-30T03:09:10.402Z,13.43
2024-01-30T03:14:12.701Z,12.93
2024-01-30T03:19:14.907Z,13.45
2024-01-30T03:24:17.078Z,13.27
2024-01-30T03:29:19.292Z,12.88
2024-01-30T03:34:21.503Z,12.60
2024-01-30T03:39:24.235Z,13.70
2024-01-30T03:44:26.309Z,13.27
2024-01-30T03:49:28.559Z,12.45
2024-01-30T03:54:30.981Z,13.13
2024-01-30T03:59:33.059Z,12.18
2024-01-30T04:04:35.439Z,12.35
2024-01-30T04:09:39.625Z,11.93
2024-01-30T04:14:41.994Z,12.43
2024-01-30T04:19:44.348Z,12.13
2024-01-30T04:24:46.534Z,11.75
2024-01-30T04:29:48.908Z,11.82
2024-01-30T04:34:51.294Z,12.07
2024-01-30T04:39:53.485Z,12.02
2024-01-30T04:44:55.684Z,11.77
2024-01-30T04:49:58.100Z,11.32
2024-01-30T04:55:00.612Z,11.88
2024-01-30T05:00:02.992Z,12.00
2024-01-30T05:05:05.846Z,12.38
2024-01-30T05:10:09.377Z,12.02
2024-01-30T05:15:11.538Z,12.48
2024-01-30T05:20:14.173Z,12.68
2024-01-30T05:25:16.566Z,12.18
2024-01-30T05:30:18.656Z,12.10
2024-01-30T05:35:22.275Z,12.02
2024-01-30T05:40:24.607Z,12.93
2024-01-30T05:45:26.868Z,12.43
2024-01-30T05:50:29.064Z,11.82
2024-01-30T05:55:31.197Z,11.80
2024-01-30T06:00:33.391Z,11.43
2024-01-30T06:05:35.627Z,12.10
2024-01-30T06:10:37.694Z,13.07
2024-01-30T06:15:40.146Z,11.80
2024-01-30T06:20:42.325Z,12.23
2024-01-30T06:25:44.773Z,11.98
2024-01-30T06:30:46.975Z,13.10
2024-01-30T06:35:49.317Z,11.90
2024-01-30T06:40:51.369Z,12.35
2024-01-30T06:45:53.910Z,11.50
2024-01-30T06:50:58.174Z,11.93
2024-01-30T06:56:00.663Z,11.43
2024-01-30T07:01:03.180Z,12.02
2024-01-30T07:06:05.888Z,12.00
2024-01-30T07:11:08.602Z,12.02
2024-01-30T07:16:10.664Z,12.45
2024-01-30T07:21:13.735Z,12.32
2024-01-30T07:26:16.064Z,11.63
2024-01-30T07:31:18.265Z,11.50
2024-01-30T07:36:20.346Z,12.40
2024-01-30T07:41:22.514Z,11.68
2024-01-30T07:46:24.738Z,11.25
2024-01-30T07:51:26.935Z,11.90
2024-01-30T07:56:30.371Z,12.27
2024-01-30T08:01:32.919Z,12.68
2024-01-30T08:06:35.211Z,13.07
2024-01-30T08:11:37.403Z,12.13
2024-01-30T08:16:39.645Z,12.00
2024-01-30T08:21:41.854Z,12.27
2024-01-30T08:26:44.324Z,12.93
2024-01-30T08:31:47.423Z,12.55
2024-01-30T08:36:49.794Z,12.10
2024-01-30T08:41:52.286Z,11.50
2024-01-30T08:46:57.773Z,12.15
2024-01-30T08:52:00.607Z,12.07
2024-01-30T08:57:03.146Z,11.27
2024-01-30T09:02:12.143Z,12.25
2024-01-30T09:07:15.295Z,12.30
2024-01-30T09:12:17.746Z,11.70
2024-01-30T09:17:20.066Z,12.23
2024-01-30T09:22:22.464Z,11.88
2024-01-30T09:27:24.900Z,12.90
2024-01-30T09:32:27.797Z,12.07
2024-01-30T09:37:30.168Z,11.82
2024-01-30T09:42:37.218Z,12.05
2024-01-30T09:47:44.044Z,11.63
2024-01-30T09:52:47.528Z,12.25
2024-01-30T09:57:49.869Z,12.38
2024-01-30T10:02:52.080Z,12.18
2024-01-30T10:07:56.056Z,13.38
2024-01-30T10:12:59.290Z,13.23
2024-01-30T10:18:02.384Z,13.20
2024-01-30T10:23:05.013Z,13.13
2024-01-30T10:28:07.279Z,12.48
2024-01-30T10:33:09.517Z,13.65
2024-01-30T10:38:39.248Z,12.05
2024-01-30T10:43:43.378Z,11.10
2024-01-30T10:48:50.510Z,12.20
2024-01-30T10:53:54.275Z,12.02
2024-01-30T10:58:56.718Z,11.05
2024-01-30T11:03:59.197Z,11.27
2024-01-30T11:09:09.603Z,11.20
2024-01-30T11:14:11.738Z,11.20
2024-01-30T11:19:24.071Z,10.20
2024-01-30T11:24:26.496Z,8.73
2024-01-30T11:29:29.492Z,8.45
2024-01-30T11:34:34.948Z,7.45
2024-01-30T11:39:37.770Z,6.68
2024-01-30T11:44:39.876Z,8.18
2024-01-30T11:49:42.275Z,7.15
2024-01-30T11:54:44.525Z,5.75
2024-01-30T11:59:46.617Z,7.00
2024-01-30T12:04:48.856Z,6.57
2024-01-30T12:09:55.450Z,4.20
2024-01-30T12:14:57.856Z,5.90
2024-01-30T12:20:04.686Z,5.18
2024-01-30T12:25:14.367Z,3.83
2024-01-30T12:30:16.832Z,3.15
2024-01-30T12:35:20.770Z,3.33
2024-01-30T12:40:23.359Z,2.67
2024-01-30T12:45:26.195Z,3.92
2024-01-30T12:50:28.317Z,3.42
2024-01-30T12:55:31.451Z,2.63
2024-01-30T13:00:35.463Z,2.72
2024-01-30T13:05:38.142Z,2.92
2024-01-30T13:10:40.437Z,2.65
2024-01-30T13:15:42.628Z,3.10
2024-01-30T13:20:44.825Z,3.92
2024-01-30T13:25:46.920Z,2.90
2024-01-30T13:30:49.242Z,3.67
2024-01-30T13:35:51.667Z,3.78
2024-01-30T13:40:53.980Z,4.80
2024-01-30T13:45:56.439Z,4.30
2024-01-30T13:50:58.996Z,5.35
2024-01-30T13:56:01.735Z,5.75
2024-01-30T14:01:04.644Z,5.97
2024-01-30T14:06:07.248Z,7.45
2024-01-30T14:11:11.019Z,6.85
2024-01-30T14:16:13.252Z,7.63
2024-01-30T14:21:15.410Z,7.15
2024-01-30T14:26:17.567Z,6.78
2024-01-30T14:31:21.026Z,7.30
2024-01-30T14:36:23.325Z,6.88
2024-01-30T14:41:25.700Z,6.65
2024-01-30T14:46:27.981Z,6.50
2024-01-30T14:51:30.690Z,6.70
2024-01-30T14:56:33.838Z,6.50
2024-01-30T15:01:36.114Z,7.18
2024-01-30T15:06:39.115Z,6.85
2024-01-30T15:11:51.437Z,6.75
2024-01-30T15:16:53.670Z,8.35
2024-01-30T15:21:55.911Z,9.10
2024-01-30T15:26:58.035Z,9.40
2024-01-30T15:32:00.261Z,9.60
2024-01-30T15:37:02.561Z,10.18
2024-01-30T15:42:05.241Z,9.75
2024-01-30T15:47:07.459Z,9.80
2024-01-30T15:52:15.653Z,8.73
2024-01-30T15:57:17.980Z,8.02
2024-01-30T16:08:05.186Z,8.23
2024-01-30T16:13:07.482Z,7.68
2024-01-30T16:18:09.727Z,6.80
2024-01-30T16:23:12.012Z,7.28
2024-01-30T16:28:14.297Z,6.45
2024-01-30T16:33:19.031Z,6.50
2024-01-30T16:38:21.273Z,7.18
2024-01-30T16:43:23.391Z,8.02
2024-01-30T16:48:25.940Z,7.30
2024-01-30T16:53:28.179Z,6.95
2024-01-30T16:58:30.380Z,7.07
2024-01-30T17:03:32.580Z,9.23
2024-01-30T17:08:34.901Z,8.70
2024-01-30T17:13:37.732Z,9.63
2024-01-30T17:18:39.958Z,9.63
2024-01-30T17:23:42.098Z,10.10
2024-01-30T17:28:44.499Z,10.07
2024-01-30T17:33:47.172Z,10.45
2024-01-30T17:38:49.494Z,10.80
2024-01-30T17:43:51.922Z,11.52
2024-01-30T17:48:54.431Z,11.13
2024-01-30T17:53:56.588Z,13.07
2024-01-30T17:58:58.684Z,13.48
2024-01-30T18:04:00.825Z,13.82
2024-01-30T18:09:03.073Z,12.75
2024-01-30T18:14:05.327Z,12.68
2024-01-30T18:19:07.651Z,13.63
2024-01-30T18:24:09.836Z,12.95
2024-01-30T18:29:11.916Z,14.10
2024-01-30T18:34:15.302Z,14.65
2024-01-30T18:39:17.585Z,14.38
2024-01-30T18:44:19.666Z,15.15
2024-01-30T18:49:21.897Z,15.68
2024-01-30T18:54:26.359Z,14.70
2024-01-30T18:59:28.809Z,14.43
2024-01-30T19:04:31.225Z,19.55
2024-01-30T19:09:33.609Z,16.23
2024-01-30T19:14:37.100Z,16.60
2024-01-30T19:19:41.183Z,17.30
2024-01-30T19:24:43.477Z,17.52
2024-01-30T19:30:06.782Z,20.33
2024-01-30T19:35:15.112Z,17.73
2024-01-30T19:40:19.029Z,19.17
2024-01-30T19:45:24.294Z,19.25
2024-01-30T19:50:33.145Z,18.40
2024-01-30T19:55:36.344Z,21.63
2024-01-30T20:00:39.005Z,19.15
2024-01-30T20:05:41.318Z,17.98
2024-01-30T20:10:44.545Z,17.45
2024-01-30T20:15:46.878Z,17.38
2024-01-30T20:20:49.334Z,18.15
2024-01-30T20:25:51.561Z,17.30
2024-01-30T20:30:53.890Z,17.08
2024-01-30T20:35:56.712Z,15.63
2024-01-30T20:40:58.931Z,15.32
2024-01-30T20:46:01.297Z,14.00
2024-01-30T20:51:03.978Z,13.95
2024-01-30T20:56:08.628Z,14.15
2024-01-30T21:01:11.058Z,15.73
2024-01-30T21:06:14.513Z,14.43
2024-01-30T21:11:19.067Z,15.10
2024-01-30T21:16:21.364Z,14.65
2024-01-30T21:21:23.555Z,14.10
2024-01-30T21:26:25.684Z,13.52
2024-01-30T21:31:27.893Z,15.10
2024-01-30T21:36:30.119Z,14.25
2024-01-30T21:41:32.290Z,13.27
2024-01-30T21:46:34.945Z,13.02
2024-01-30T21:51:37.362Z,12.02
2024-01-30T21:56:39.730Z,11.70
2024-01-30T22:01:42.011Z,11.10
2024-01-30T22:06:44.400Z,10.88
2024-01-30T22:11:47.667Z,9.80
2024-01-30T22:16:50.295Z,10.48
2024-01-30T22:21:52.594Z,9.32
2024-01-30T22:26:54.717Z,8.93
2024-01-30T22:31:56.790Z,9.48
2024-01-30T22:36:59.225Z,9.45
2024-01-30T22:42:01.675Z,8.70
2024-01-30T22:47:04.340Z,8.63
2024-01-30T22:52:07.020Z,9.55
2024-01-30T22:57:09.143Z,8.85
2024-01-30T23:02:11.730Z,9.27
2024-01-30T23:07:17.545Z,8.88
2024-01-30T23:12:20.435Z,9.35
2024-01-30T23:17:22.622Z,9.32
2024-01-30T23:22:24.826Z,9.75
2024-01-30T23:27:27.013Z,9.65
2024-01-30T23:32:35.026Z,9.70
2024-01-30T23:37:41.781Z,9.35
2024-01-30T23:42:44.247Z,9.38
2024-01-30T23:47:46.406Z,8.93
2024-01-30T23:52:50.234Z,8.68
2024-01-30T23:57:52.358Z,8.80
